Pell City, Alabama
Current Conditions -  °F | °C
As of 12:55 AM on Thursday 23 Oct 2014 (Local Time) from KASN Reporting Station
Clear Clear  
Wind Chill: 44°   Ceiling: Unl
Heat Index: 44°   Visibility: 10mi
Dew Point: 42°   Wind: 0mph
Humidity: 91%   Direction: NA
Pressure: 30.15"   Gusts: NA
Location:  33.59°N, 86.29°W
Report Text: KASN 230555Z AUTO 00000KT 10SM CLR 07/06 A3015 RMK AO2 T00690055 10163 20067 402150066
Loading
Personal Weather Stations






























Interactive Weather Map New forecast layout! Learn more

10-Day Weather Forecast

Advertisements
Track Severe Weather on mobile